createdAt,value
2022-08-05T00:04:08.555Z,29.88
2022-08-05T00:14:17.149Z,29.84
2022-08-05T00:24:30.743Z,29.77
2022-08-05T00:34:56.407Z,29.75
2022-08-05T00:44:47.174Z,29.74
2022-08-05T00:54:54.089Z,29.72
2022-08-05T01:05:02.491Z,29.69
2022-08-05T01:15:35.134Z,29.66
2022-08-05T01:25:40.008Z,29.65
2022-08-05T01:35:52.061Z,29.63
2022-08-05T01:45:56.082Z,29.59
2022-08-05T01:56:04.530Z,29.58
2022-08-05T02:06:33.240Z,29.57
2022-08-05T02:16:23.659Z,29.56
2022-08-05T02:26:30.668Z,29.53
2022-08-05T02:36:37.804Z,29.60
2022-08-05T02:46:58.637Z,29.56
2022-08-05T02:56:56.394Z,29.52
2022-08-05T03:07:03.043Z,29.57
2022-08-05T03:17:10.365Z,29.51
2022-08-05T03:27:19.991Z,29.48
2022-08-05T03:37:27.344Z,29.47
2022-08-05T03:47:35.572Z,29.51
2022-08-05T03:57:46.802Z,29.52
2022-08-05T04:07:57.867Z,29.46
2022-08-05T04:18:06.867Z,29.44
2022-08-05T04:28:14.330Z,29.46
2022-08-05T04:38:22.293Z,29.49
2022-08-05T04:48:34.264Z,29.48
2022-08-05T04:58:41.099Z,29.52
2022-08-05T05:08:49.994Z,29.47
2022-08-05T05:19:19.530Z,29.43
2022-08-05T05:29:14.313Z,29.39
2022-08-05T05:39:20.772Z,29.38
2022-08-05T05:49:27.708Z,29.44
2022-08-05T05:59:40.186Z,29.38
2022-08-05T06:10:00.247Z,29.39
2022-08-05T06:19:59.543Z,29.41
2022-08-05T06:30:18.096Z,29.38
2022-08-05T06:40:21.093Z,29.34
2022-08-05T06:50:28.082Z,29.36
2022-08-05T07:00:36.443Z,29.43
2022-08-05T07:10:53.073Z,29.42
2022-08-05T07:21:04.804Z,29.40
2022-08-05T07:31:12.584Z,29.38
2022-08-05T07:42:14.193Z,29.37
2022-08-05T07:51:41.094Z,29.39
2022-08-05T08:01:52.212Z,29.37
2022-08-05T08:12:09.330Z,29.39
2022-08-05T08:22:15.975Z,29.42
2022-08-05T08:32:27.736Z,29.35
2022-08-05T08:42:50.531Z,29.39
2022-08-05T08:52:51.755Z,29.41
2022-08-05T09:02:59.350Z,29.38
2022-08-05T09:13:06.730Z,29.37
2022-08-05T09:23:18.667Z,29.36
2022-08-05T09:33:34.926Z,29.36
2022-08-05T09:43:41.120Z,29.41
2022-08-05T09:53:53.461Z,29.38
2022-08-05T10:04:00.820Z,29.37
2022-08-05T10:14:07.174Z,29.38
2022-08-05T10:24:17.919Z,29.36
2022-08-05T10:34:25.604Z,29.36
2022-08-05T10:44:37.122Z,29.37
2022-08-05T10:54:47.154Z,29.38
2022-08-05T11:04:57.694Z,29.36
2022-08-05T11:15:19.130Z,29.37
2022-08-05T11:26:03.000Z,29.37
2022-08-05T11:35:28.665Z,29.35
2022-08-05T11:46:23.496Z,29.31
2022-08-05T11:55:52.693Z,29.23
2022-08-05T12:06:00.456Z,29.18
2022-08-05T12:16:14.999Z,29.18
2022-08-05T12:26:19.665Z,29.21
2022-08-05T12:36:26.659Z,29.22
2022-08-05T12:46:34.617Z,29.24
2022-08-05T12:56:42.429Z,29.26
2022-08-05T13:06:52.225Z,29.31
2022-08-05T13:17:00.019Z,29.35
2022-08-05T13:27:11.230Z,29.35
2022-08-05T13:37:27.208Z,29.36
2022-08-05T13:47:35.971Z,29.38
2022-08-05T13:57:50.719Z,29.42
2022-08-05T14:08:05.512Z,29.40
2022-08-05T14:18:14.907Z,29.37
2022-08-05T14:28:26.466Z,29.41
2022-08-05T14:38:34.319Z,29.41
2022-08-05T14:48:42.583Z,29.40
2022-08-05T14:58:53.251Z,29.40
2022-08-05T15:09:03.611Z,29.39
2022-08-05T15:19:23.475Z,29.38
2022-08-05T15:29:22.850Z,29.36
2022-08-05T15:41:04.619Z,29.35
2022-08-05T15:49:56.770Z,29.37
2022-08-05T15:59:57.625Z,29.37
2022-08-05T16:10:05.042Z,29.42
2022-08-05T16:20:16.986Z,29.55
2022-08-05T16:30:28.855Z,29.55
2022-08-05T16:40:35.971Z,29.58
2022-08-05T16:50:43.132Z,29.54
2022-08-05T17:00:49.519Z,29.53
2022-08-05T17:10:55.867Z,29.53
2022-08-05T17:21:02.798Z,29.59
2022-08-05T17:31:24.549Z,29.58
2022-08-05T17:42:16.424Z,29.57
2022-08-05T17:51:40.351Z,29.43
2022-08-05T18:01:50.237Z,29.45
2022-08-05T18:11:59.017Z,29.58
2022-08-05T18:22:07.283Z,29.47
2022-08-05T18:32:16.855Z,29.45
2022-08-05T18:42:24.753Z,29.57
2022-08-05T18:52:35.856Z,29.37
2022-08-05T19:02:43.344Z,29.55
2022-08-05T19:12:50.902Z,29.58
2022-08-05T19:22:57.426Z,29.58
2022-08-05T19:33:06.386Z,29.35
2022-08-05T19:44:45.058Z,29.38
2022-08-05T19:54:48.355Z,29.34
2022-08-05T20:04:55.364Z,29.42
2022-08-05T20:15:05.155Z,29.42
2022-08-05T20:25:16.007Z,29.45
2022-08-05T20:35:23.680Z,29.40
2022-08-05T20:45:47.667Z,29.38
2022-08-05T20:55:56.564Z,29.27
2022-08-05T21:05:56.276Z,29.33
2022-08-05T21:16:06.133Z,29.39
2022-08-05T21:26:15.046Z,29.35
2022-08-05T21:36:29.995Z,29.32
2022-08-05T21:46:34.958Z,29.26
2022-08-05T21:56:44.700Z,29.22
2022-08-05T22:06:56.994Z,29.18
2022-08-05T22:17:05.289Z,29.20
2022-08-05T22:27:16.594Z,29.20
2022-08-05T22:37:24.547Z,29.18
2022-08-05T22:47:35.875Z,29.09
2022-08-05T22:57:49.104Z,29.04
2022-08-05T23:07:55.629Z,28.95
2022-08-05T23:18:03.612Z,28.98
2022-08-05T23:28:12.501Z,28.92
2022-08-05T23:38:18.984Z,28.73
2022-08-05T23:48:26.413Z,28.62
2022-08-05T23:58:32.923Z,28.66
